Time;durP1;ratioP1;P1;durP2;ratioP2;P2;SDS_P1;SDS_P2;PMS_P1;PMS_P2;Temp;Humidity;BMP_temperature;BMP_pressure;BME280_temperature;BME280_humidity;BME280_pressure;Samples;Min_cycle;Max_cycle;Signal;HPM_P1;HPM_P2
2023/01/26 00:01:20;;;;;;;47.78;30.98;;;-0.30;99.90;;;;;;5020429;27;89258;-33
2023/01/26 00:03:46;;;;;;;61.28;36.58;;;-0.20;99.90;;;;;;5019938;27;90385;-30
2023/01/26 00:06:13;;;;;;;58.35;34.78;;;-0.20;99.90;;;;;;5018746;28;89649;-32
2023/01/26 00:08:41;;;;;;;61.67;38.63;;;-0.30;99.90;;;;;;5020243;27;89606;-33
2023/01/26 00:11:09;;;;;;;55.03;35.47;;;-0.20;99.90;;;;;;5019950;27;88172;-32
2023/01/26 00:13:35;;;;;;;58.25;35.40;;;-0.20;99.90;;;;;;5020362;28;90466;-33
2023/01/26 00:16:02;;;;;;;57.42;36.42;;;-0.30;99.90;;;;;;5017757;27;90627;-32
2023/01/26 00:18:29;;;;;;;54.90;33.65;;;-0.20;99.90;;;;;;5019724;28;90007;-30
2023/01/26 00:20:59;;;;;;;53.50;37.40;;;-0.20;99.90;;;;;;5018857;27;87805;-33
2023/01/26 00:23:25;;;;;;;58.15;35.38;;;-0.30;99.90;;;;;;5020264;28;90432;-30
2023/01/26 00:25:51;;;;;;;56.58;38.22;;;-0.30;99.90;;;;;;5019178;28;91340;-31
2023/01/26 00:28:17;;;;;;;51.90;33.42;;;-0.20;99.90;;;;;;5019663;27;89997;-31
2023/01/26 00:30:42;;;;;;;62.70;35.80;;;-0.20;99.90;;;;;;5019294;27;88501;-33
2023/01/26 00:33:08;;;;;;;49.78;32.97;;;-0.30;99.90;;;;;;5019599;28;90410;-32
2023/01/26 00:35:33;;;;;;;61.10;37.10;;;-0.30;99.90;;;;;;5020029;28;88469;-32
2023/01/26 00:37:59;;;;;;;66.97;39.75;;;-0.30;99.90;;;;;;5019428;27;89460;-32
2023/01/26 00:40:24;;;;;;;57.80;35.90;;;-0.20;99.90;;;;;;5018523;27;88128;-33
2023/01/26 00:42:53;;;;;;;57.78;39.03;;;-0.30;99.90;;;;;;5018381;27;91193;-33
2023/01/26 00:45:21;;;;;;;52.92;31.27;;;-0.30;99.90;;;;;;5000513;28;89899;-32
2023/01/26 00:47:47;;;;;;;;;;;-0.30;99.90;;;;;;5018777;27;89611;-30
2023/01/26 00:50:13;;;;;;;61.67;35.20;;;-0.30;99.90;;;;;;5023074;27;88812;-31
2023/01/26 00:52:38;;;;;;;53.80;34.08;;;-0.30;99.90;;;;;;5018134;28;89787;-31
2023/01/26 00:55:04;;;;;;;56.47;38.70;;;-0.30;99.90;;;;;;5019248;27;89067;-31
2023/01/26 00:57:30;;;;;;;62.63;39.88;;;-0.30;99.90;;;;;;5019326;28;90138;-32
2023/01/26 00:59:56;;;;;;;59.22;37.88;;;-0.30;99.90;;;;;;5018825;27;88656;-31
2023/01/26 01:02:21;;;;;;;56.17;35.83;;;-0.20;99.90;;;;;;5019530;27;88899;-34
2023/01/26 01:04:47;;;;;;;63.40;36.42;;;-0.20;99.90;;;;;;5017691;27;89802;-32
2023/01/26 01:07:13;;;;;;;73.38;42.13;;;-0.20;99.90;;;;;;5018987;28;90087;-32
2023/01/26 01:09:38;;;;;;;61.80;34.50;;;-0.10;99.90;;;;;;5018246;28;89069;-33
2023/01/26 01:12:04;;;;;;;52.38;33.97;;;-0.20;99.90;;;;;;5019070;28;90228;-32
2023/01/26 01:14:30;;;;;;;57.63;38.05;;;-0.10;99.90;;;;;;5018617;27;90546;-31
2023/01/26 01:16:55;;;;;;;49.35;30.08;;;-0.20;99.90;;;;;;5018624;27;89206;-31
2023/01/26 01:19:21;;;;;;;52.55;33.08;;;-0.20;99.90;;;;;;5019139;28;88118;-32
2023/01/26 01:21:46;;;;;;;56.20;34.60;;;-0.20;99.90;;;;;;5018372;28;90519;-31
2023/01/26 01:24:12;;;;;;;52.65;34.60;;;-0.20;99.90;;;;;;5018792;28;90140;-32
2023/01/26 01:26:38;;;;;;;54.65;32.35;;;-0.20;99.90;;;;;;5018813;27;89551;-31
2023/01/26 01:29:04;;;;;;;60.03;38.42;;;-0.20;99.90;;;;;;5017802;27;89759;-34
2023/01/26 01:31:30;;;;;;;47.15;33.13;;;-0.20;99.90;;;;;;5018466;28;89821;-33
2023/01/26 01:33:56;;;;;;;51.78;28.48;;;-0.10;99.90;;;;;;5017607;27;89573;-33
2023/01/26 01:36:22;;;;;;;50.55;31.55;;;-0.10;99.90;;;;;;5018718;28;89104;-31
2023/01/26 01:38:48;;;;;;;51.72;34.38;;;-0.10;99.90;;;;;;5018924;27;89342;-31
2023/01/26 01:41:17;;;;;;;53.00;34.67;;;-0.20;99.90;;;;;;5017754;28;90278;-30
2023/01/26 01:43:43;;;;;;;52.05;32.50;;;-0.20;99.90;;;;;;5017714;27;89709;-33
2023/01/26 01:46:18;;;;;;;42.80;26.95;;;-0.20;99.90;;;;;;5019065;28;89919;-31
2023/01/26 01:48:49;;;;;;;43.78;29.02;;;-0.10;99.90;;;;;;5017067;27;89958;-30
2023/01/26 01:51:20;;;;;;;47.50;28.80;;;-0.10;99.90;;;;;;4999841;28;89849;-34
2023/01/26 01:53:49;;;;;;;60.90;33.50;;;-0.10;99.90;;;;;;5004325;27;90745;-32
2023/01/26 01:56:20;;;;;;;49.70;34.03;;;-0.20;99.90;;;;;;5017156;27;90607;-33
2023/01/26 01:58:51;;;;;;;49.20;30.60;;;-0.10;99.90;;;;;;5018349;27;89437;-30
2023/01/26 02:01:16;;;;;;;45.97;28.35;;;-0.10;99.90;;;;;;5018618;28;89313;-31
2023/01/26 02:03:45;;;;;;;44.50;31.17;;;-0.10;99.90;;;;;;5018535;27;89927;-32
2023/01/26 02:06:14;;;;;;;47.50;30.58;;;-0.10;99.90;;;;;;5018109;27;89561;-33
2023/01/26 02:08:47;;;;;;;41.78;28.95;;;-0.10;99.90;;;;;;5017198;28;89874;-30
2023/01/26 02:11:17;;;;;;;47.70;29.98;;;-0.10;99.90;;;;;;5018511;27;91271;-31
2023/01/26 02:13:47;;;;;;;49.08;30.77;;;-0.10;99.90;;;;;;5018089;27;89155;-31
2023/01/26 02:16:13;;;;;;;53.67;31.77;;;-0.10;99.90;;;;;;5018308;27;89131;-32
2023/01/26 02:18:39;;;;;;;44.58;29.20;;;-0.10;99.90;;;;;;5017028;27;89158;-31
2023/01/26 02:21:08;;;;;;;51.30;30.33;;;-0.10;99.90;;;;;;5017976;28;89772;-32
2023/01/26 02:23:41;;;;;;;55.63;31.70;;;-0.10;99.90;;;;;;5018323;28;89124;-31
2023/01/26 02:26:12;;;;;;;49.97;31.73;;;-0.10;99.90;;;;;;5017747;28;88973;-30
2023/01/26 02:28:39;;;;;;;35.67;24.48;;;0.00;99.90;;;;;;5017641;27;89365;-31
2023/01/26 02:31:05;;;;;;;35.30;23.23;;;0.00;99.90;;;;;;5017569;27;90570;-31
2023/01/26 02:33:31;;;;;;;34.55;22.25;;;0.00;99.90;;;;;;5018043;28;89683;-31
2023/01/26 02:35:58;;;;;;;46.40;26.95;;;0.00;99.90;;;;;;5017587;28;89655;-31
2023/01/26 02:38:29;;;;;;;43.33;25.77;;;0.10;99.90;;;;;;5018182;28;90108;-32
2023/01/26 02:41:00;;;;;;;41.72;25.33;;;0.00;99.90;;;;;;5006046;27;90152;-32
2023/01/26 02:43:27;;;;;;;33.38;24.90;;;0.00;99.90;;;;;;5016665;27;90713;-31
2023/01/26 02:45:53;;;;;;;35.75;25.30;;;0.00;99.90;;;;;;5017204;28;90491;-33
2023/01/26 02:49:45;;;;;;;37.38;20.88;;;0.00;99.90;;;;;;5017027;28;88799;-32
2023/01/26 02:51:05;;;;;;;32.95;23.05;;;0.00;99.90;;;;;;5017327;28;90672;-32
2023/01/26 02:53:31;;;;;;;40.05;26.55;;;0.00;99.90;;;;;;5017172;28;90197;-34
2023/01/26 02:55:56;;;;;;;37.47;23.80;;;0.00;99.90;;;;;;5017201;28;90209;-31
2023/01/26 02:58:22;;;;;;;39.35;25.45;;;0.00;99.90;;;;;;5017461;28;88675;-33
2023/01/26 03:00:48;;;;;;;33.30;22.45;;;0.00;99.90;;;;;;5018152;27;89685;-30
2023/01/26 03:03:21;;;;;;;29.80;20.98;;;0.00;99.90;;;;;;5017132;28;89730;-31
2023/01/26 03:05:47;;;;;;;29.45;22.05;;;0.00;99.90;;;;;;5020359;28;90033;-32
2023/01/26 03:08:13;;;;;;;38.53;24.60;;;0.00;99.90;;;;;;5019924;28;90179;-34
2023/01/26 03:10:38;;;;;;;38.60;24.95;;;0.00;99.90;;;;;;5020899;28;89936;-33
2023/01/26 03:13:04;;;;;;;39.72;25.17;;;0.00;99.90;;;;;;5020266;27;89493;-31
2023/01/26 03:15:42;;;;;;;31.23;22.13;;;0.00;99.90;;;;;;5020776;28;90413;-31
2023/01/26 03:29:15;;;;;;;37.60;21.25;;;0.10;99.90;;;;;;5020937;27;89482;-31
2023/01/26 03:31:41;;;;;;;29.40;19.50;;;0.10;99.90;;;;;;5020520;27;90562;-32
2023/01/26 03:34:06;;;;;;;29.90;19.35;;;0.10;99.90;;;;;;5019123;28;91899;-33
2023/01/26 03:36:32;;;;;;;34.95;22.30;;;0.20;99.90;;;;;;5020541;28;89909;-32
2023/01/26 03:38:57;;;;;;;27.63;20.15;;;0.20;99.90;;;;;;5020739;27;88814;-30
2023/01/26 03:57:49;;;;;;;27.08;17.55;;;0.20;99.90;;;;;;5020252;27;89598;-33
2023/01/26 04:00:15;;;;;;;27.05;17.08;;;0.20;99.90;;;;;;5019235;27;89407;-31
2023/01/26 04:08:28;;;;;;;27.15;18.92;;;0.30;99.90;;;;;;5019795;27;89578;-33
2023/01/26 04:10:54;;;;;;;26.42;19.05;;;0.30;99.90;;;;;;5019796;27;89199;-33
2023/01/26 04:21:36;;;;;;;25.77;14.05;;;0.30;99.90;;;;;;5009878;27;89702;-32
2023/01/26 04:24:13;;;;;;;20.67;16.15;;;0.30;99.90;;;;;;5020044;27;90487;-33
2023/01/26 04:26:40;;;;;;;22.90;15.07;;;0.30;99.90;;;;;;5018630;28;90759;-32
2023/01/26 04:29:08;;;;;;;26.90;16.55;;;0.40;99.90;;;;;;5019504;27;90472;-32
2023/01/26 04:31:34;;;;;;;26.33;16.00;;;0.40;99.90;;;;;;5019339;27;88366;-31
2023/01/26 04:34:01;;;;;;;22.77;14.88;;;0.40;99.90;;;;;;5019257;27;90136;-32
2023/01/26 04:36:26;;;;;;;24.60;16.25;;;0.40;99.90;;;;;;5019300;27;90793;-30
2023/01/26 04:38:53;;;;;;;24.65;13.20;;;0.40;99.90;;;;;;5019336;27;89758;-31
2023/01/26 04:41:18;;;;;;;19.30;13.32;;;0.40;99.90;;;;;;5020206;28;89495;-32
2023/01/26 04:43:44;;;;;;;19.63;14.30;;;0.40;99.90;;;;;;5018996;28;89861;-31
2023/01/26 04:46:10;;;;;;;19.80;13.90;;;0.40;99.90;;;;;;5019337;28;90004;-34
2023/01/26 04:48:36;;;;;;;19.00;12.95;;;0.40;99.90;;;;;;5017992;28;90536;-33
2023/01/26 04:51:08;;;;;;;17.92;14.40;;;0.40;99.90;;;;;;5019760;28;89962;-31
2023/01/26 04:53:34;;;;;;;16.95;11.88;;;0.40;99.90;;;;;;5018795;28;90140;-33
2023/01/26 04:56:00;;;;;;;22.50;14.30;;;0.50;99.90;;;;;;5019163;28;89413;-30
2023/01/26 04:58:25;;;;;;;19.20;12.02;;;0.50;99.90;;;;;;5018770;27;90416;-33
2023/01/26 05:00:53;;;;;;;17.40;13.13;;;0.50;99.90;;;;;;5019243;28;89255;-34
2023/01/26 05:03:18;;;;;;;16.65;12.43;;;0.50;99.90;;;;;;5019507;27;90138;-33
2023/01/26 05:05:46;;;;;;;20.27;12.70;;;0.50;99.90;;;;;;5018455;27;89683;-33
2023/01/26 05:08:12;;;;;;;18.98;12.18;;;0.50;99.90;;;;;;5018772;27;89711;-31
2023/01/26 05:10:38;;;;;;;24.90;15.15;;;0.50;99.90;;;;;;5019384;27;89058;-32
2023/01/26 05:13:03;;;;;;;18.98;14.02;;;0.50;99.90;;;;;;5018226;28;90545;-31
2023/01/26 05:15:29;;;;;;;21.02;13.40;;;0.50;99.90;;;;;;5018465;27;89693;-33
2023/01/26 05:17:58;;;;;;;19.27;13.43;;;0.50;99.90;;;;;;5018191;28;90426;-34
2023/01/26 05:20:24;;;;;;;21.75;14.10;;;0.50;99.90;;;;;;5019404;27;89045;-33
2023/01/26 05:22:50;;;;;;;20.75;14.15;;;0.50;99.90;;;;;;5017635;27;90110;-33
2023/01/26 05:25:15;;;;;;;21.65;13.85;;;0.50;99.90;;;;;;5019383;28;90536;-31
2023/01/26 05:27:41;;;;;;;20.02;13.45;;;0.50;99.90;;;;;;5016902;27;89511;-30
2023/01/26 05:30:07;;;;;;;20.40;13.82;;;0.50;99.90;;;;;;5019507;28;89577;-31
2023/01/26 05:32:33;;;;;;;20.25;12.65;;;0.50;99.90;;;;;;5018856;27;91588;-33
2023/01/26 05:34:58;;;;;;;25.20;13.95;;;0.60;99.90;;;;;;5018500;28;89731;-31
2023/01/26 05:37:25;;;;;;;24.73;13.95;;;0.60;99.90;;;;;;5018309;27;90732;-31
2023/01/26 05:39:51;;;;;;;21.15;12.77;;;0.60;99.90;;;;;;5017770;28;90072;-33
2023/01/26 05:42:17;;;;;;;20.17;15.35;;;0.50;99.90;;;;;;5018672;28;89924;-31
2023/01/26 05:44:43;;;;;;;23.83;14.15;;;0.60;99.90;;;;;;5018448;28;89665;-33
2023/01/26 05:47:08;;;;;;;20.13;13.45;;;0.50;99.90;;;;;;5018066;27;89630;-33
2023/01/26 05:49:34;;;;;;;22.80;13.73;;;0.60;99.90;;;;;;5018777;28;88401;-31
2023/01/26 05:51:59;;;;;;;20.75;13.18;;;0.60;99.90;;;;;;5018087;27;90279;-32
2023/01/26 05:54:25;;;;;;;24.92;15.23;;;0.60;99.90;;;;;;5019271;27;89430;-32
2023/01/26 05:56:52;;;;;;;21.50;13.50;;;0.60;99.90;;;;;;5017433;27;89864;-31
2023/01/26 05:59:18;;;;;;;20.77;13.90;;;0.60;99.90;;;;;;5017926;27;89400;-33
2023/01/26 06:01:43;;;;;;;18.58;12.98;;;0.60;99.90;;;;;;5018260;27;90143;-32
2023/01/26 06:04:09;;;;;;;19.85;12.82;;;0.60;99.90;;;;;;5017733;28;90681;-32
2023/01/26 06:06:35;;;;;;;20.02;13.20;;;0.60;99.90;;;;;;5018156;27;90666;-33
2023/01/26 06:09:00;;;;;;;24.65;15.13;;;0.60;99.90;;;;;;5018168;28;89548;-32
2023/01/26 06:11:26;;;;;;;21.83;15.05;;;0.60;99.90;;;;;;5017453;27;90405;-32
2023/01/26 06:13:51;;;;;;;24.08;14.15;;;0.60;99.90;;;;;;5017917;28;89626;-34
2023/01/26 06:16:17;;;;;;;16.45;12.50;;;0.60;99.90;;;;;;5017730;28;89626;-33
2023/01/26 06:18:46;;;;;;;20.55;12.50;;;0.60;99.90;;;;;;5018365;27;89710;-34
2023/01/26 06:21:11;;;;;;;23.50;13.57;;;0.60;99.90;;;;;;5018330;27;91191;-31
2023/01/26 06:23:37;;;;;;;24.85;14.80;;;0.70;99.90;;;;;;5017602;28;90251;-31
2023/01/26 06:26:02;;;;;;;17.65;12.95;;;0.70;99.90;;;;;;5017782;27;89624;-33
2023/01/26 06:28:29;;;;;;;27.20;16.70;;;0.70;99.90;;;;;;5017548;27;89246;-32
2023/01/26 06:31:03;;;;;;;23.95;14.38;;;0.60;99.90;;;;;;5018004;27;91031;-31
2023/01/26 06:33:31;;;;;;;22.13;14.00;;;0.70;99.90;;;;;;5017755;27;90321;-32
2023/01/26 06:36:01;;;;;;;19.02;13.40;;;0.70;99.90;;;;;;5017203;28;89794;-31
2023/01/26 06:38:28;;;;;;;20.63;13.80;;;0.70;99.90;;;;;;5018607;27;89852;-31
2023/01/26 06:40:54;;;;;;;20.08;12.90;;;0.70;99.90;;;;;;5021253;28;89845;-31
2023/01/26 06:43:20;;;;;;;26.00;13.43;;;0.70;99.90;;;;;;5003712;28;89424;-31
2023/01/26 06:45:46;;;;;;;26.50;14.60;;;0.70;99.90;;;;;;5020813;28;89975;-31
2023/01/26 06:48:12;;;;;;;21.38;14.10;;;0.70;99.90;;;;;;5020270;27;88282;-31
2023/01/26 06:50:38;;;;;;;20.85;13.45;;;0.70;99.90;;;;;;5020650;28;91646;-33
2023/01/26 06:53:35;;;;;;;35.53;16.35;;;0.70;99.90;;;;;;5020517;27;90690;-32
2023/01/26 06:56:01;;;;;;;29.35;16.05;;;0.70;99.90;;;;;;5021477;27;90946;-33
2023/01/26 06:58:27;;;;;;;27.98;14.93;;;0.70;99.90;;;;;;5021559;27;89460;-31
2023/01/26 07:00:54;;;;;;;36.72;16.63;;;0.70;99.90;;;;;;5020464;28;90277;-30
2023/01/26 07:03:20;;;;;;;31.75;17.45;;;0.70;99.90;;;;;;5020616;27;88953;-32
2023/01/26 07:05:45;;;;;;;28.77;17.90;;;0.70;99.90;;;;;;5020856;27;90321;-31
2023/01/26 07:08:11;;;;;;;31.10;15.85;;;0.70;99.90;;;;;;5020271;27;89323;-32
2023/01/26 07:10:36;;;;;;;41.10;18.55;;;0.70;99.90;;;;;;5021125;28;90277;-32
2023/01/26 07:13:04;;;;;;;43.13;17.63;;;0.70;99.90;;;;;;5020375;27;90359;-33
2023/01/26 07:15:30;;;;;;;39.80;16.02;;;0.70;99.90;;;;;;5020554;28;89405;-30
2023/01/26 07:17:56;;;;;;;37.88;18.33;;;0.70;99.90;;;;;;5020326;27;89670;-31
2023/01/26 07:20:22;;;;;;;40.65;16.13;;;0.70;99.90;;;;;;5020209;27;90256;-32
2023/01/26 07:22:48;;;;;;;31.10;15.20;;;0.70;99.90;;;;;;5018635;27;89445;-31
2023/01/26 07:25:15;;;;;;;34.30;15.93;;;0.70;99.90;;;;;;5018242;28;90482;-32
2023/01/26 07:27:40;;;;;;;30.65;16.13;;;0.70;99.90;;;;;;5020232;28;88035;-30
2023/01/26 07:30:07;;;;;;;48.30;19.23;;;0.70;99.90;;;;;;5021401;28;90388;-32
2023/01/26 07:32:32;;;;;;;35.97;18.10;;;0.70;99.90;;;;;;5019774;27;91724;-32
2023/01/26 07:34:58;;;;;;;34.08;19.10;;;0.70;99.90;;;;;;5020974;27;89596;-33
2023/01/26 07:37:27;;;;;;;34.55;17.20;;;0.80;99.90;;;;;;5020395;28;88830;-32
2023/01/26 07:39:53;;;;;;;32.05;14.88;;;0.80;99.90;;;;;;5019964;28;90379;-32
2023/01/26 07:42:18;;;;;;;26.67;15.60;;;0.80;99.90;;;;;;5019106;27;90799;-32
2023/01/26 07:44:44;;;;;;;30.70;18.15;;;0.80;99.90;;;;;;5020987;27;90352;-31
2023/01/26 07:47:10;;;;;;;38.47;17.27;;;0.90;99.90;;;;;;5019494;27;89051;-30
2023/01/26 07:49:35;;;;;;;34.28;17.88;;;0.90;99.90;;;;;;5020079;28;89939;-34
2023/01/26 07:52:01;;;;;;;38.65;19.95;;;0.90;99.90;;;;;;5020010;28;89692;-33
2023/01/26 07:54:26;;;;;;;31.88;16.08;;;0.90;99.90;;;;;;5020436;27;89543;-33
2023/01/26 07:56:53;;;;;;;29.15;16.30;;;0.90;99.90;;;;;;5019867;27;89522;-31
2023/01/26 07:59:19;;;;;;;35.92;16.52;;;0.90;99.90;;;;;;5016886;28;90198;-31
2023/01/26 08:01:47;;;;;;;51.60;21.85;;;0.90;99.90;;;;;;5018453;27;89485;-32
2023/01/26 08:04:12;;;;;;;39.58;19.75;;;0.90;99.90;;;;;;5019825;28;89559;-31
2023/01/26 08:06:38;;;;;;;33.88;19.00;;;0.90;99.90;;;;;;5019215;27;90130;-33
2023/01/26 08:09:04;;;;;;;33.08;18.35;;;0.90;99.90;;;;;;5019198;28;90609;-31
2023/01/26 08:11:29;;;;;;;43.47;20.25;;;0.90;99.90;;;;;;5015505;27;89655;-31
2023/01/26 08:13:55;;;;;;;30.35;17.20;;;1.00;99.90;;;;;;5016366;27;88859;-31
2023/01/26 08:16:20;;;;;;;35.13;16.40;;;1.00;99.90;;;;;;5019164;28;89410;-32
2023/01/26 08:18:46;;;;;;;43.33;18.95;;;1.00;99.90;;;;;;5019547;27;90443;-33
2023/01/26 08:21:14;;;;;;;37.03;19.75;;;1.00;99.90;;;;;;5020137;28;89361;-31
2023/01/26 08:23:40;;;;;;;35.47;17.03;;;1.00;99.90;;;;;;5019319;28;89574;-31
2023/01/26 08:26:09;;;;;;;42.42;17.33;;;1.10;99.90;;;;;;5019342;27;89271;-33
2023/01/26 08:28:35;;;;;;;43.65;18.15;;;1.10;99.90;;;;;;5019655;28;89759;-31
2023/01/26 08:31:06;;;;;;;35.33;16.70;;;1.10;99.90;;;;;;5019717;28;90297;-31
2023/01/26 08:33:33;;;;;;;30.63;17.70;;;1.10;99.90;;;;;;5019655;28;90305;-31
2023/01/26 08:36:03;;;;;;;27.35;14.27;;;1.10;99.90;;;;;;5019288;27;89883;-32
2023/01/26 08:38:32;;;;;;;38.28;18.40;;;1.10;99.90;;;;;;5015672;28;90236;-30
2023/01/26 08:40:58;;;;;;;32.47;17.00;;;1.10;99.90;;;;;;5015659;27;90170;-32
2023/01/26 08:43:24;;;;;;;39.30;17.75;;;1.10;99.90;;;;;;5016443;27;90033;-32
2023/01/26 08:45:50;;;;;;;35.60;15.93;;;1.00;99.90;;;;;;5017276;27;88658;-31
2023/01/26 08:48:15;;;;;;;45.90;17.80;;;1.00;99.90;;;;;;5015854;27;91259;-33
2023/01/26 08:50:41;;;;;;;41.15;17.98;;;1.00;99.90;;;;;;5017266;28;89568;-32
2023/01/26 08:53:07;;;;;;;32.90;17.17;;;1.00;99.90;;;;;;5016878;27;90671;-32
2023/01/26 08:55:34;;;;;;;41.17;17.15;;;1.10;99.90;;;;;;5016946;28;90217;-30
2023/01/26 08:58:00;;;;;;;46.28;16.10;;;1.10;99.90;;;;;;5016629;27;90530;-31
2023/01/26 09:00:26;;;;;;;50.88;17.83;;;1.00;99.90;;;;;;5016384;27;89300;-33
2023/01/26 09:02:59;;;;;;;33.90;16.98;;;1.00;99.90;;;;;;5013822;27;89474;-32
2023/01/26 09:05:25;;;;;;;41.60;16.90;;;1.00;99.90;;;;;;5013645;27;88942;-31
2023/01/26 09:07:50;;;;;;;28.23;13.98;;;1.00;99.90;;;;;;5015661;27;89791;-33
2023/01/26 09:10:16;;;;;;;36.20;16.58;;;1.10;99.90;;;;;;5016682;28;89742;-31
2023/01/26 09:12:42;;;;;;;28.60;14.18;;;1.10;99.90;;;;;;5016034;28;89502;-32
2023/01/26 09:15:08;;;;;;;24.63;13.85;;;1.00;99.90;;;;;;5017221;27;88898;-31
2023/01/26 09:17:34;;;;;;;36.08;14.15;;;1.10;99.90;;;;;;5015596;27;90012;-32
2023/01/26 09:20:00;;;;;;;44.25;16.15;;;1.10;99.90;;;;;;5016187;28;91628;-31
2023/01/26 09:22:25;;;;;;;28.52;15.98;;;1.30;99.90;;;;;;5016831;28;91816;-33
2023/01/26 09:24:51;;;;;;;27.42;13.65;;;1.50;99.90;;;;;;5016623;27;88520;-33
2023/01/26 09:27:16;;;;;;;34.45;14.38;;;1.60;99.90;;;;;;5016811;27;90299;-32
2023/01/26 09:29:42;;;;;;;30.52;14.52;;;1.70;99.90;;;;;;5015634;27;89089;-31
2023/01/26 09:32:08;;;;;;;31.90;15.65;;;1.90;99.90;;;;;;5016722;28;90071;-31
2023/01/26 09:34:33;;;;;;;32.92;14.52;;;2.00;99.90;;;;;;5016272;27;89494;-32
2023/01/26 09:36:59;;;;;;;29.83;15.07;;;2.10;99.90;;;;;;5016139;28;88948;-34
2023/01/26 09:39:24;;;;;;;41.75;14.68;;;2.20;99.90;;;;;;5015340;27;89674;-33
2023/01/26 09:42:02;;;;;;;34.35;13.85;;;2.30;99.90;;;;;;4997295;28;89258;-33
2023/01/26 09:44:32;;;;;;;40.87;13.73;;;2.40;99.90;;;;;;5015984;28;89276;-31
2023/01/26 09:49:57;;;;;;;34.20;12.50;;;2.80;99.90;;;;;;4973315;28;89553;-33
2023/01/26 09:52:50;;;;;;;28.27;10.07;;;2.90;99.90;;;;;;4976561;28;90189;-30
2023/01/26 09:55:19;;;;;;;26.23;8.88;;;3.10;99.90;;;;;;4975909;28;90157;-32
2023/01/26 09:58:04;;;;;;;21.98;10.32;;;3.30;99.90;;;;;;4975816;28;89808;-32
2023/01/26 10:00:58;;;;;;;37.85;12.38;;;3.50;99.90;;;;;;4974103;28;89134;-34
2023/01/26 10:03:49;;;;;;;28.50;9.20;;;3.60;99.90;;;;;;4973796;28;89665;-31
2023/01/26 10:06:15;;;;;;;38.58;10.75;;;3.70;99.90;;;;;;4974801;28;89818;-33
2023/01/26 10:08:44;;;;;;;31.50;10.57;;;3.90;99.90;;;;;;4975414;28;90548;-33
2023/01/26 10:11:27;;;;;;;34.63;9.50;;;4.00;99.90;;;;;;4974665;28;90543;-30
2023/01/26 10:14:00;;;;;;;40.42;8.27;;;4.10;99.90;;;;;;4977772;28;89025;-31
2023/01/26 10:16:26;;;;;;;33.58;8.85;;;4.20;99.90;;;;;;4979603;28;89099;-34
2023/01/26 10:18:58;;;;;;;29.60;8.88;;;4.30;99.90;;;;;;4979725;28;89245;-32
2023/01/26 10:21:29;;;;;;;40.95;10.00;;;4.40;99.90;;;;;;4978533;28;89696;-34
2023/01/26 10:23:58;;;;;;;34.20;8.38;;;4.50;99.90;;;;;;4977468;28;89713;-33
2023/01/26 10:26:30;;;;;;;47.53;9.95;;;4.60;99.90;;;;;;4979508;28;89101;-32
2023/01/26 10:28:56;;;;;;;36.60;8.27;;;4.70;99.90;;;;;;4979062;28;90282;-31
2023/01/26 10:31:25;;;;;;;30.50;8.30;;;4.70;99.90;;;;;;4980043;28;89769;-32
2023/01/26 10:33:54;;;;;;;33.95;9.20;;;4.80;99.90;;;;;;4979908;28;89478;-33
2023/01/26 10:36:20;;;;;;;32.47;9.45;;;4.90;99.90;;;;;;4969037;28;89864;-31
2023/01/26 10:38:47;;;;;;;33.20;8.07;;;5.00;99.90;;;;;;4978978;28;90114;-32
2023/01/26 10:41:18;;;;;;;27.52;8.90;;;5.00;99.90;;;;;;4979733;28;89692;-32
2023/01/26 10:43:58;;;;;;;21.90;7.38;;;5.10;99.90;;;;;;4978867;28;89930;-31
2023/01/26 10:46:31;;;;;;;28.10;6.60;;;5.20;99.90;;;;;;4979165;28;89130;-31
2023/01/26 10:49:00;;;;;;;22.60;7.65;;;5.20;99.90;;;;;;4965769;28;90350;-31
2023/01/26 10:51:31;;;;;;;26.27;7.93;;;5.30;99.90;;;;;;4976972;28;90095;-32
2023/01/26 10:54:18;;;;;;;25.13;8.02;;;5.40;99.90;;;;;;4973972;28;89945;-33
2023/01/26 10:56:56;;;;;;;14.00;7.03;;;5.40;99.90;;;;;;4979417;28;89448;-31
2023/01/26 10:59:38;;;;;;;33.35;8.65;;;5.50;99.90;;;;;;4978031;28;90822;-30
2023/01/26 11:02:13;;;;;;;26.15;7.18;;;5.60;99.90;;;;;;4978663;28;89234;-34
2023/01/26 11:04:39;;;;;;;32.05;8.73;;;5.70;99.90;;;;;;4941769;28;90909;-32
2023/01/26 11:07:38;;;;;;;37.35;8.65;;;5.70;99.90;;;;;;4939279;28;89922;-32
2023/01/26 11:10:23;;;;;;;27.73;6.78;;;5.80;99.90;;;;;;4931892;28;90507;-31
2023/01/26 11:12:51;;;;;;;35.15;6.65;;;6.00;99.90;;;;;;4939173;28;89657;-32
2023/01/26 11:15:22;;;;;;;35.97;7.43;;;6.00;99.90;;;;;;4940246;28;88637;-34
2023/01/26 11:18:09;;;;;;;29.83;5.97;;;6.00;99.90;;;;;;4937351;28;87791;-32
2023/01/26 11:20:47;;;;;;;13.75;6.45;;;6.10;99.90;;;;;;4939984;28;89730;-37
2023/01/26 11:23:36;;;;;;;27.90;6.40;;;6.10;99.90;;;;;;4929668;28;89326;-32
2023/01/26 11:26:20;;;;;;;19.65;5.43;;;6.20;99.90;;;;;;4938359;28;89534;-32
2023/01/26 11:29:20;;;;;;;37.88;7.32;;;6.30;99.90;;;;;;4938134;28;88909;-32
2023/01/26 11:31:54;;;;;;;26.75;6.68;;;6.40;99.90;;;;;;4937246;28;91782;-31
2023/01/26 11:34:40;;;;;;;22.13;6.05;;;6.50;99.90;;;;;;4936524;28;89204;-35
2023/01/26 11:37:47;;;;;;;20.83;5.95;;;6.60;99.90;;;;;;4937446;28;90040;-32
2023/01/26 11:40:43;;;;;;;27.80;6.27;;;6.70;99.90;;;;;;4938810;28;89244;-32
2023/01/26 11:43:34;;;;;;;23.00;6.45;;;6.80;99.90;;;;;;4937447;28;89238;-32
2023/01/26 11:46:15;;;;;;;24.83;6.75;;;6.80;99.90;;;;;;4938992;28;91009;-32
2023/01/26 11:48:51;;;;;;;15.60;5.47;;;6.90;99.90;;;;;;4925270;28;89583;-33
2023/01/26 11:51:36;;;;;;;19.15;4.97;;;7.00;99.90;;;;;;4939480;28;88365;-31
2023/01/26 11:54:36;;;;;;;24.45;5.97;;;7.00;99.90;;;;;;4934128;28;90224;-34
2023/01/26 11:57:21;;;;;;;20.02;6.88;;;7.10;99.90;;;;;;4938717;28;90837;-34
2023/01/26 11:59:59;;;;;;;12.60;4.82;;;7.20;99.90;;;;;;4938108;28;91040;-33
2023/01/26 12:02:33;;;;;;;19.58;5.32;;;7.30;99.90;;;;;;4938396;28;88762;-33
2023/01/26 12:05:07;;;;;;;29.80;6.18;;;7.30;99.90;;;;;;4938047;28;90308;-33
2023/01/26 12:07:53;;;;;;;19.45;5.57;;;7.40;99.90;;;;;;4937816;28;89632;-31
2023/01/26 12:10:24;;;;;;;27.73;7.25;;;7.30;99.90;;;;;;4938929;28;89908;-34
2023/01/26 12:13:03;;;;;;;15.77;5.55;;;7.40;99.90;;;;;;4938222;28;89262;-33
2023/01/26 12:15:35;;;;;;;20.77;5.97;;;7.50;99.90;;;;;;4938791;28;90258;-33
2023/01/26 12:18:20;;;;;;;20.77;5.20;;;7.50;99.90;;;;;;4937621;28;89767;-32
2023/01/26 12:21:01;;;;;;;15.02;4.55;;;7.50;99.90;;;;;;4934784;28;89174;-33
2023/01/26 12:23:37;;;;;;;15.75;5.25;;;7.60;99.90;;;;;;4937920;28;90292;-34
2023/01/26 12:26:24;;;;;;;26.33;6.30;;;7.60;99.90;;;;;;4939073;28;89773;-32
2023/01/26 12:29:16;;;;;;;19.30;4.90;;;7.50;99.90;;;;;;4933331;28;89774;-34
2023/01/26 12:31:59;;;;;;;22.48;5.38;;;7.50;99.90;;;;;;4937895;28;89742;-32
2023/01/26 12:34:31;;;;;;;28.38;7.15;;;7.50;99.90;;;;;;4938709;28;87734;-33
2023/01/26 12:37:25;;;;;;;25.75;5.03;;;7.50;99.90;;;;;;4934656;28;90243;-34
2023/01/26 12:40:05;;;;;;;17.67;5.20;;;7.50;99.90;;;;;;4931879;28;89670;-33
2023/01/26 12:42:49;;;;;;;17.50;4.90;;;7.50;99.90;;;;;;4938448;28;89129;-32
2023/01/26 12:45:27;;;;;;;15.75;5.15;;;7.40;99.90;;;;;;4938476;28;87614;-34
2023/01/26 12:48:20;;;;;;;18.58;4.68;;;7.40;99.90;;;;;;4926247;28;90769;-31
2023/01/26 12:50:46;;;;;;;20.10;4.63;;;7.50;99.90;;;;;;4958081;28;90770;-34
2023/01/26 12:53:41;;;;;;;11.93;4.63;;;7.60;99.90;;;;;;4938278;28;91042;-33
2023/01/26 12:56:24;;;;;;;17.20;4.07;;;7.50;99.90;;;;;;4924850;28;88304;-33
2023/01/26 12:58:52;;;;;;;10.48;2.63;;;7.50;99.90;;;;;;4926960;28;90561;-35
2023/01/26 13:01:21;;;;;;;18.80;8.57;;;7.50;99.90;;;;;;4937827;28;90779;-32
2023/01/26 13:03:54;;;;;;;12.63;5.88;;;7.50;99.90;;;;;;4937540;28;89675;-35
2023/01/26 13:06:24;;;;;;;9.32;4.10;;;7.40;99.90;;;;;;4938384;28;88638;-33
2023/01/26 13:09:18;;;;;;;11.00;3.25;;;7.40;99.90;;;;;;4930117;28;90630;-32
2023/01/26 13:11:57;;;;;;;23.25;3.90;;;7.40;99.90;;;;;;4930550;28;89665;-31
2023/01/26 13:14:31;;;;;;;11.75;4.45;;;7.40;99.90;;;;;;4935696;28;89204;-33
2023/01/26 13:17:17;;;;;;;15.32;3.65;;;7.40;99.90;;;;;;4936675;28;89335;-32
2023/01/26 13:19:43;;;;;;;17.58;4.82;;;7.40;99.90;;;;;;4935931;28;90976;-34
2023/01/26 13:22:17;;;;;;;10.73;4.32;;;7.40;99.90;;;;;;4936963;28;89006;-32
2023/01/26 13:24:48;;;;;;;15.88;3.97;;;7.50;99.90;;;;;;4931228;28;89332;-35
2023/01/26 13:27:33;;;;;;;12.15;3.58;;;7.50;99.90;;;;;;4934883;28;88709;-32
2023/01/26 13:30:00;;;;;;;8.30;3.53;;;7.60;99.90;;;;;;4926794;28;90438;-34
2023/01/26 13:32:25;;;;;;;14.95;4.10;;;7.60;99.90;;;;;;4934608;28;89597;-33
2023/01/26 13:35:00;;;;;;;9.30;3.65;;;7.60;99.90;;;;;;4937637;28;89607;-34
2023/01/26 13:37:42;;;;;;;23.30;3.88;;;7.60;99.90;;;;;;4937676;28;88982;-32